EWG5AB EDDH-LDSP
Flight info
| Callsign | EWG5AB |
|---|---|
| Flight time | 1h 47m |
| Altitude | 37000 |
| Route | AMLUH2G AMLUH M852 DENIX DCT ZUCKA DCT LASTO DCT RODIS DCT KUMOM DCT MALUG DCT RISOM DCT OSLOP DCT PUL DCT MINTU DCT SAL |
| Aircraft | A320/M-SDE3FGHIRWY/LB1 |
Departure
| Time | 2026-05-04 11:05 |
|---|---|
| Airport | Hamburg Helmut Schmidt Airport (EDDH) |
Arrival
| Time | 2026-05-04 12:53 |
|---|---|
| Airport | Split Saint Jerome Airport (LDSP) |
| Time | Latitude | Longitude | Altitude | Speed | Heading |
|---|---|---|---|---|---|
| 2026-05-04 10:32 | 53.62775 | 10.00278 | 49 ft | 0 kts | 63° |
| 2026-05-04 10:56 | 53.62773 | 10.00271 | 48 ft | 3 kts | 63° |
| 2026-05-04 10:56 | 53.62760 | 10.00232 | 48 ft | 4 kts | 55° |
| 2026-05-04 10:57 | 53.62743 | 10.00198 | 45 ft | 4 kts | 38° |
| 2026-05-04 10:57 | 53.62721 | 10.00181 | 45 ft | 4 kts | 346° |
| 2026-05-04 10:57 | 53.62715 | 10.00183 | 47 ft | 0 kts | 333° |
| 2026-05-04 10:59 | 53.62723 | 10.00177 | 45 ft | 3 kts | 333° |
| 2026-05-04 10:59 | 53.62761 | 10.00144 | 48 ft | 9 kts | 333° |
| 2026-05-04 10:59 | 53.62821 | 10.00092 | 48 ft | 10 kts | 332° |
| 2026-05-04 11:00 | 53.62855 | 9.99993 | 48 ft | 11 kts | 254° |
| 2026-05-04 11:01 | 53.62884 | 9.99732 | 45 ft | 25 kts | 333° |
| 2026-05-04 11:02 | 53.63264 | 9.99403 | 47 ft | 94 kts | 333° |
| 2026-05-04 11:02 | 53.64022 | 9.98746 | 50 ft | 148 kts | 333° |
| 2026-05-04 11:05 | 53.70857 | 10.13479 | 7707 ft | 292 kts | 121° |
| 2026-05-04 11:06 | 53.69836 | 10.16465 | 8482 ft | 295 kts | 126° |
| 2026-05-04 11:06 | 53.68497 | 10.19091 | 9259 ft | 296 kts | 142° |
| 2026-05-04 11:06 | 53.66807 | 10.21043 | 10028 ft | 295 kts | 158° |
| 2026-05-04 11:06 | 53.64902 | 10.22226 | 10546 ft | 303 kts | 168° |
| 2026-05-04 11:08 | 53.48867 | 10.29508 | 14571 ft | 355 kts | 169° |
| 2026-05-04 11:10 | 53.31831 | 10.37232 | 18828 ft | 371 kts | 171° |
| 2026-05-04 11:12 | 53.14001 | 10.45190 | 22401 ft | 389 kts | 171° |
| 2026-05-04 11:12 | 53.11365 | 10.46285 | 22880 ft | 391 kts | 173° |
| 2026-05-04 11:12 | 53.08701 | 10.47210 | 23338 ft | 392 kts | 175° |
| 2026-05-04 11:12 | 53.06006 | 10.48030 | 23754 ft | 395 kts | 176° |
| 2026-05-04 11:13 | 53.03292 | 10.48807 | 24139 ft | 397 kts | 176° |
| 2026-05-04 11:13 | 53.00563 | 10.49583 | 24523 ft | 399 kts | 176° |
| 2026-05-04 11:13 | 52.97822 | 10.50383 | 24900 ft | 401 kts | 176° |
| 2026-05-04 11:13 | 52.95105 | 10.51200 | 25261 ft | 403 kts | 176° |
| 2026-05-04 11:14 | 52.94172 | 10.51484 | 25383 ft | 404 kts | 175° |
| 2026-05-04 11:16 | 52.66893 | 10.59896 | 28579 ft | 422 kts | 175° |
| 2026-05-04 11:16 | 52.64000 | 10.60786 | 28873 ft | 424 kts | 175° |
| 2026-05-04 11:16 | 52.61092 | 10.61678 | 29168 ft | 426 kts | 175° |
| 2026-05-04 11:17 | 52.58174 | 10.62570 | 29456 ft | 427 kts | 175° |
| 2026-05-04 11:17 | 52.55248 | 10.63463 | 29730 ft | 429 kts | 175° |
| 2026-05-04 11:19 | 52.34573 | 10.69718 | 31537 ft | 432 kts | 175° |
| 2026-05-04 11:19 | 52.31623 | 10.70612 | 31836 ft | 431 kts | 175° |
| 2026-05-04 11:19 | 52.28680 | 10.71503 | 32142 ft | 430 kts | 175° |
| 2026-05-04 11:19 | 52.25744 | 10.72390 | 32417 ft | 429 kts | 175° |
| 2026-05-04 11:20 | 52.22812 | 10.73269 | 32702 ft | 428 kts | 176° |
| 2026-05-04 11:20 | 52.19922 | 10.74129 | 32993 ft | 427 kts | 176° |
| 2026-05-04 11:20 | 52.17001 | 10.74995 | 33296 ft | 427 kts | 176° |
| 2026-05-04 11:20 | 52.14084 | 10.75862 | 33589 ft | 426 kts | 176° |
| 2026-05-04 11:22 | 51.93767 | 10.81901 | 34981 ft | 425 kts | 175° |
| 2026-05-04 11:22 | 51.90862 | 10.82765 | 34991 ft | 423 kts | 175° |
| 2026-05-04 11:23 | 51.85075 | 10.84481 | 34997 ft | 422 kts | 175° |
| 2026-05-04 11:25 | 51.64891 | 10.90478 | 34997 ft | 423 kts | 173° |
| 2026-05-04 11:25 | 51.59155 | 10.92737 | 34996 ft | 425 kts | 171° |
| 2026-05-04 11:27 | 51.33416 | 11.03068 | 34992 ft | 424 kts | 172° |
| 2026-05-04 11:28 | 51.27686 | 11.05302 | 34964 ft | 424 kts | 172° |
| 2026-05-04 11:28 | 51.21950 | 11.07536 | 34973 ft | 424 kts | 172° |
| 2026-05-04 11:29 | 51.16249 | 11.09755 | 34984 ft | 425 kts | 171° |
| 2026-05-04 11:29 | 51.10516 | 11.12109 | 34990 ft | 427 kts | 169° |
| 2026-05-04 11:33 | 50.71067 | 11.32862 | 34986 ft | 427 kts | 167° |
| 2026-05-04 11:33 | 50.65413 | 11.35777 | 34985 ft | 428 kts | 167° |
| 2026-05-04 11:34 | 50.59752 | 11.38684 | 34984 ft | 428 kts | 167° |
| 2026-05-04 11:34 | 50.54090 | 11.41601 | 34992 ft | 428 kts | 167° |
| 2026-05-04 11:35 | 50.48421 | 11.44505 | 35002 ft | 428 kts | 167° |
| 2026-05-04 11:35 | 50.42794 | 11.47375 | 35004 ft | 428 kts | 167° |
| 2026-05-04 11:36 | 50.37126 | 11.50258 | 35008 ft | 428 kts | 167° |
| 2026-05-04 11:36 | 50.31456 | 11.53150 | 35012 ft | 428 kts | 167° |
| 2026-05-04 11:37 | 50.25783 | 11.56017 | 35006 ft | 429 kts | 167° |
| 2026-05-04 11:37 | 50.20143 | 11.58853 | 35001 ft | 429 kts | 166° |
| 2026-05-04 11:38 | 50.14456 | 11.61719 | 35000 ft | 429 kts | 166° |
| 2026-05-04 11:38 | 50.08769 | 11.64584 | 35002 ft | 430 kts | 166° |
| 2026-05-04 11:39 | 50.03077 | 11.67434 | 34989 ft | 430 kts | 167° |
| 2026-05-04 11:41 | 49.83185 | 11.77358 | 35043 ft | 430 kts | 167° |
| 2026-05-04 11:41 | 49.77486 | 11.80184 | 35058 ft | 430 kts | 167° |
| 2026-05-04 11:42 | 49.71828 | 11.82988 | 35048 ft | 430 kts | 166° |
| 2026-05-04 11:42 | 49.66121 | 11.85801 | 35050 ft | 431 kts | 166° |
| 2026-05-04 11:43 | 49.60412 | 11.88616 | 35050 ft | 431 kts | 166° |
| 2026-05-04 11:43 | 49.54695 | 11.91431 | 35030 ft | 431 kts | 166° |
| 2026-05-04 11:44 | 49.48969 | 11.94229 | 35025 ft | 432 kts | 167° |
| 2026-05-04 11:44 | 49.43167 | 11.95954 | 35016 ft | 427 kts | 175° |
| 2026-05-04 11:45 | 49.37291 | 11.97278 | 35003 ft | 427 kts | 175° |
| 2026-05-04 11:45 | 49.31411 | 11.98621 | 35000 ft | 427 kts | 175° |
| 2026-05-04 11:46 | 49.25531 | 11.99970 | 35002 ft | 427 kts | 175° |
| 2026-05-04 11:46 | 49.19657 | 12.01301 | 35022 ft | 426 kts | 176° |
| 2026-05-04 11:47 | 49.13827 | 12.02624 | 35000 ft | 427 kts | 175° |
| 2026-05-04 11:47 | 49.07946 | 12.03938 | 34993 ft | 427 kts | 175° |
| 2026-05-04 11:48 | 49.02060 | 12.05255 | 34996 ft | 427 kts | 175° |
| 2026-05-04 11:48 | 48.96175 | 12.06579 | 34997 ft | 428 kts | 175° |
| 2026-05-04 11:49 | 48.90326 | 12.07889 | 34995 ft | 428 kts | 175° |
| 2026-05-04 11:49 | 48.84436 | 12.09206 | 34998 ft | 428 kts | 175° |
| 2026-05-04 11:50 | 48.78545 | 12.10518 | 35000 ft | 427 kts | 175° |
| 2026-05-04 11:50 | 48.72662 | 12.11826 | 35003 ft | 427 kts | 175° |
| 2026-05-04 11:51 | 48.66777 | 12.13127 | 35004 ft | 427 kts | 175° |
| 2026-05-04 11:51 | 48.60939 | 12.14418 | 34991 ft | 427 kts | 175° |
| 2026-05-04 11:52 | 48.55064 | 12.15721 | 34994 ft | 427 kts | 175° |
| 2026-05-04 11:52 | 48.49189 | 12.17015 | 34999 ft | 426 kts | 175° |
| 2026-05-04 11:53 | 48.43314 | 12.18301 | 34979 ft | 427 kts | 175° |
| 2026-05-04 11:53 | 48.37425 | 12.19585 | 34983 ft | 428 kts | 175° |
| 2026-05-04 11:55 | 48.13884 | 12.24715 | 34986 ft | 428 kts | 175° |
| 2026-05-04 11:56 | 48.08027 | 12.25984 | 34986 ft | 428 kts | 175° |
| 2026-05-04 11:56 | 48.02130 | 12.27260 | 34989 ft | 428 kts | 175° |
| 2026-05-04 11:57 | 47.96233 | 12.28531 | 34978 ft | 428 kts | 175° |
| 2026-05-04 11:57 | 47.90341 | 12.29801 | 34985 ft | 428 kts | 175° |
| 2026-05-04 11:58 | 47.84452 | 12.31057 | 34989 ft | 427 kts | 175° |
| 2026-05-04 11:58 | 47.78605 | 12.32299 | 34981 ft | 427 kts | 175° |
| 2026-05-04 11:59 | 47.72721 | 12.33563 | 34972 ft | 427 kts | 175° |
| 2026-05-04 11:59 | 47.66844 | 12.34827 | 34975 ft | 427 kts | 175° |
| 2026-05-04 12:00 | 47.60964 | 12.36085 | 34975 ft | 427 kts | 175° |
| 2026-05-04 12:00 | 47.55125 | 12.37321 | 34981 ft | 427 kts | 174° |
| 2026-05-04 12:01 | 47.49266 | 12.38794 | 34981 ft | 428 kts | 172° |
| 2026-05-04 12:02 | 47.28822 | 12.44405 | 35012 ft | 428 kts | 172° |
| 2026-05-04 12:03 | 47.22970 | 12.45950 | 35011 ft | 427 kts | 172° |
| 2026-05-04 12:03 | 47.17116 | 12.47509 | 35021 ft | 428 kts | 173° |
| 2026-05-04 12:04 | 47.11256 | 12.49076 | 35018 ft | 428 kts | 172° |
| 2026-05-04 12:04 | 47.05391 | 12.50626 | 35030 ft | 428 kts | 172° |
| 2026-05-04 12:05 | 46.99567 | 12.52160 | 35055 ft | 428 kts | 172° |
| 2026-05-04 12:05 | 46.93697 | 12.53699 | 35076 ft | 429 kts | 172° |
| 2026-05-04 12:06 | 46.87826 | 12.55234 | 35082 ft | 429 kts | 172° |
| 2026-05-04 12:06 | 46.81951 | 12.56772 | 35090 ft | 429 kts | 172° |
| 2026-05-04 12:07 | 46.76115 | 12.58302 | 35088 ft | 429 kts | 172° |
| 2026-05-04 12:07 | 46.70262 | 12.60031 | 35089 ft | 431 kts | 165° |
| 2026-05-04 12:08 | 46.64650 | 12.63191 | 35082 ft | 433 kts | 161° |
| 2026-05-04 12:08 | 46.59046 | 12.66423 | 35064 ft | 434 kts | 161° |
| 2026-05-04 12:09 | 46.53464 | 12.69616 | 35063 ft | 434 kts | 161° |
| 2026-05-04 12:09 | 46.47836 | 12.72825 | 35072 ft | 435 kts | 161° |
| 2026-05-04 12:10 | 46.42202 | 12.76033 | 35075 ft | 435 kts | 161° |
| 2026-05-04 12:10 | 46.36565 | 12.79239 | 35079 ft | 435 kts | 161° |
| 2026-05-04 12:11 | 46.30931 | 12.82449 | 35083 ft | 435 kts | 161° |
| 2026-05-04 12:11 | 46.25332 | 12.85629 | 35082 ft | 435 kts | 161° |
| 2026-05-04 12:12 | 46.19691 | 12.88818 | 35073 ft | 436 kts | 161° |
| 2026-05-04 12:12 | 46.14038 | 12.92007 | 35070 ft | 437 kts | 161° |
| 2026-05-04 12:14 | 45.91236 | 13.03980 | 35100 ft | 437 kts | 163° |
| 2026-05-04 12:15 | 45.85499 | 13.06864 | 35096 ft | 437 kts | 163° |
| 2026-05-04 12:15 | 45.79763 | 13.09770 | 35081 ft | 437 kts | 162° |
| 2026-05-04 12:16 | 45.74056 | 13.12656 | 35084 ft | 438 kts | 163° |
| 2026-05-04 12:16 | 45.68301 | 13.15551 | 35082 ft | 439 kts | 163° |
| 2026-05-04 12:17 | 45.62711 | 13.19062 | 35081 ft | 442 kts | 149° |
| 2026-05-04 12:17 | 45.57662 | 13.24109 | 35102 ft | 443 kts | 147° |
| 2026-05-04 12:18 | 45.52616 | 13.29160 | 35098 ft | 443 kts | 147° |
| 2026-05-04 12:18 | 45.47601 | 13.34163 | 35102 ft | 443 kts | 147° |
| 2026-05-04 12:19 | 45.42546 | 13.39208 | 35101 ft | 444 kts | 147° |
| 2026-05-04 12:19 | 45.37488 | 13.44254 | 35098 ft | 444 kts | 147° |
| 2026-05-04 12:20 | 45.32423 | 13.49299 | 35098 ft | 445 kts | 147° |
| 2026-05-04 12:20 | 45.27390 | 13.54299 | 35106 ft | 445 kts | 147° |
| 2026-05-04 12:21 | 45.22319 | 13.59325 | 35108 ft | 445 kts | 147° |
| 2026-05-04 12:21 | 45.17235 | 13.64341 | 35098 ft | 446 kts | 147° |
| 2026-05-04 12:22 | 45.12144 | 13.69359 | 35099 ft | 446 kts | 147° |
| 2026-05-04 12:22 | 45.07082 | 13.74340 | 35102 ft | 446 kts | 147° |
| 2026-05-04 12:23 | 45.01984 | 13.79351 | 35107 ft | 446 kts | 147° |
| 2026-05-04 12:23 | 44.96879 | 13.84348 | 35132 ft | 446 kts | 147° |
| 2026-05-04 12:24 | 44.91765 | 13.89336 | 35121 ft | 447 kts | 147° |
| 2026-05-04 12:24 | 44.87006 | 13.94979 | 35120 ft | 449 kts | 135° |
| 2026-05-04 12:25 | 44.82649 | 14.01216 | 35123 ft | 450 kts | 136° |
| 2026-05-04 12:25 | 44.78241 | 14.07476 | 35106 ft | 450 kts | 136° |
| 2026-05-04 12:26 | 44.73821 | 14.13724 | 35115 ft | 450 kts | 136° |
| 2026-05-04 12:26 | 44.69400 | 14.19980 | 35102 ft | 452 kts | 136° |
| 2026-05-04 12:27 | 44.64998 | 14.26205 | 35105 ft | 452 kts | 136° |
| 2026-05-04 12:27 | 44.60548 | 14.32456 | 35112 ft | 453 kts | 136° |
| 2026-05-04 12:28 | 44.56097 | 14.38707 | 35118 ft | 453 kts | 136° |
| 2026-05-04 12:28 | 44.51643 | 14.44955 | 35114 ft | 453 kts | 136° |
| 2026-05-04 12:29 | 44.47205 | 14.51157 | 35110 ft | 454 kts | 136° |
| 2026-05-04 12:29 | 44.42728 | 14.57407 | 35116 ft | 455 kts | 136° |
| 2026-05-04 12:30 | 44.38243 | 14.63653 | 34770 ft | 455 kts | 136° |
| 2026-05-04 12:30 | 44.35997 | 14.66772 | 34533 ft | 455 kts | 136° |
| 2026-05-04 12:30 | 44.33747 | 14.69872 | 34284 ft | 454 kts | 137° |
| 2026-05-04 12:31 | 44.31430 | 14.72859 | 34033 ft | 452 kts | 139° |
| 2026-05-04 12:31 | 44.29060 | 14.75715 | 33653 ft | 448 kts | 141° |
| 2026-05-04 12:31 | 44.26700 | 14.78438 | 33122 ft | 444 kts | 142° |
| 2026-05-04 12:31 | 44.24311 | 14.81147 | 32585 ft | 441 kts | 142° |
| 2026-05-04 12:32 | 44.21944 | 14.83843 | 32052 ft | 438 kts | 142° |
| 2026-05-04 12:32 | 44.17295 | 14.89245 | 31016 ft | 433 kts | 141° |
| 2026-05-04 12:32 | 44.15001 | 14.91945 | 30500 ft | 431 kts | 141° |
| 2026-05-04 12:33 | 44.12720 | 14.94640 | 29951 ft | 429 kts | 141° |
| 2026-05-04 12:33 | 44.10455 | 14.97317 | 29440 ft | 425 kts | 141° |
| 2026-05-04 12:33 | 44.08240 | 14.99930 | 28948 ft | 421 kts | 141° |
| 2026-05-04 12:33 | 44.06010 | 15.02548 | 28474 ft | 418 kts | 141° |
| 2026-05-04 12:34 | 44.03793 | 15.05139 | 27996 ft | 415 kts | 141° |
| 2026-05-04 12:34 | 44.01590 | 15.07709 | 27528 ft | 412 kts | 141° |
| 2026-05-04 12:34 | 43.99405 | 15.10254 | 27071 ft | 409 kts | 141° |
| 2026-05-04 12:34 | 43.97234 | 15.12781 | 26612 ft | 406 kts | 141° |
| 2026-05-04 12:35 | 43.95077 | 15.15291 | 26159 ft | 403 kts | 141° |
| 2026-05-04 12:35 | 43.92939 | 15.17790 | 25701 ft | 401 kts | 140° |
| 2026-05-04 12:35 | 43.90833 | 15.20316 | 25237 ft | 399 kts | 139° |
| 2026-05-04 12:35 | 43.88757 | 15.22862 | 24768 ft | 398 kts | 139° |
| 2026-05-04 12:36 | 43.86723 | 15.25378 | 24304 ft | 396 kts | 139° |
| 2026-05-04 12:36 | 43.84671 | 15.27921 | 23822 ft | 395 kts | 139° |
| 2026-05-04 12:36 | 43.82618 | 15.30451 | 23271 ft | 395 kts | 139° |
| 2026-05-04 12:36 | 43.80568 | 15.32962 | 22771 ft | 392 kts | 139° |
| 2026-05-04 12:37 | 43.78528 | 15.35449 | 22284 ft | 390 kts | 139° |
| 2026-05-04 12:37 | 43.76494 | 15.37920 | 21795 ft | 388 kts | 139° |
| 2026-05-04 12:37 | 43.74469 | 15.40375 | 21310 ft | 386 kts | 139° |
| 2026-05-04 12:37 | 43.72456 | 15.42810 | 20829 ft | 384 kts | 139° |
| 2026-05-04 12:38 | 43.70478 | 15.45201 | 20347 ft | 382 kts | 140° |
| 2026-05-04 12:38 | 43.68483 | 15.47614 | 19868 ft | 380 kts | 140° |
| 2026-05-04 12:38 | 43.66501 | 15.50013 | 19394 ft | 378 kts | 139° |
| 2026-05-04 12:38 | 43.64533 | 15.52394 | 19023 ft | 373 kts | 139° |
| 2026-05-04 12:39 | 43.62581 | 15.54755 | 18551 ft | 372 kts | 140° |
| 2026-05-04 12:39 | 43.60655 | 15.57081 | 18187 ft | 366 kts | 140° |
| 2026-05-04 12:39 | 43.58740 | 15.59389 | 17676 ft | 364 kts | 140° |
| 2026-05-04 12:39 | 43.56848 | 15.61669 | 17264 ft | 360 kts | 140° |
| 2026-05-04 12:40 | 43.54993 | 15.63905 | 16792 ft | 358 kts | 140° |
| 2026-05-04 12:40 | 43.53127 | 15.66154 | 16348 ft | 355 kts | 139° |
| 2026-05-04 12:40 | 43.51273 | 15.68384 | 15916 ft | 352 kts | 139° |
| 2026-05-04 12:40 | 43.49433 | 15.70596 | 15495 ft | 350 kts | 139° |
| 2026-05-04 12:41 | 43.47605 | 15.72789 | 15077 ft | 347 kts | 139° |
| 2026-05-04 12:41 | 43.45791 | 15.74960 | 14671 ft | 345 kts | 139° |
| 2026-05-04 12:41 | 43.43986 | 15.77118 | 14235 ft | 343 kts | 139° |
| 2026-05-04 12:41 | 43.42185 | 15.79269 | 13738 ft | 343 kts | 139° |
| 2026-05-04 12:42 | 43.40410 | 15.81388 | 13221 ft | 342 kts | 139° |
| 2026-05-04 12:42 | 43.38617 | 15.83531 | 12703 ft | 341 kts | 139° |
| 2026-05-04 12:42 | 43.36830 | 15.85661 | 12194 ft | 339 kts | 139° |
| 2026-05-04 12:42 | 43.35053 | 15.87780 | 11679 ft | 337 kts | 139° |
| 2026-05-04 12:43 | 43.33294 | 15.89876 | 11340 ft | 327 kts | 139° |
| 2026-05-04 12:43 | 43.31710 | 15.91939 | 11212 ft | 302 kts | 130° |
| 2026-05-04 12:43 | 43.30908 | 15.93447 | 11002 ft | 292 kts | 121° |
| 2026-05-04 12:43 | 43.30030 | 15.95926 | 10435 ft | 287 kts | 114° |
| 2026-05-04 12:44 | 43.29236 | 15.98419 | 9832 ft | 283 kts | 114° |
| 2026-05-04 12:44 | 43.28445 | 16.00887 | 9133 ft | 282 kts | 113° |
| 2026-05-04 12:44 | 43.27395 | 16.04144 | 8320 ft | 282 kts | 113° |
| 2026-05-04 12:44 | 43.26601 | 16.06594 | 7811 ft | 281 kts | 113° |
| 2026-05-04 12:45 | 43.25809 | 16.09038 | 7437 ft | 280 kts | 113° |
| 2026-05-04 12:45 | 43.25293 | 16.10653 | 7177 ft | 279 kts | 110° |
| 2026-05-04 12:45 | 43.24956 | 16.13226 | 6793 ft | 274 kts | 84° |
| 2026-05-04 12:45 | 43.25449 | 16.15705 | 6380 ft | 269 kts | 59° |
| 2026-05-04 12:46 | 43.26650 | 16.17637 | 5933 ft | 267 kts | 35° |
| 2026-05-04 12:46 | 43.28238 | 16.18947 | 5481 ft | 267 kts | 28° |
| 2026-05-04 12:46 | 43.30381 | 16.20605 | 4909 ft | 267 kts | 29° |
| 2026-05-04 12:46 | 43.31472 | 16.21450 | 4618 ft | 266 kts | 29° |
| 2026-05-04 12:47 | 43.33083 | 16.22700 | 4224 ft | 264 kts | 29° |
| 2026-05-04 12:47 | 43.34642 | 16.23915 | 4095 ft | 251 kts | 29° |
| 2026-05-04 12:47 | 43.36106 | 16.25058 | 3969 ft | 240 kts | 29° |
| 2026-05-04 12:47 | 43.37521 | 16.26163 | 3821 ft | 229 kts | 29° |
| 2026-05-04 12:48 | 43.38894 | 16.27240 | 3626 ft | 224 kts | 31° |
| 2026-05-04 12:48 | 43.40076 | 16.28559 | 3504 ft | 215 kts | 41° |
| 2026-05-04 12:48 | 43.41175 | 16.29902 | 3364 ft | 208 kts | 41° |
| 2026-05-04 12:48 | 43.42249 | 16.31201 | 3159 ft | 204 kts | 41° |
| 2026-05-04 12:49 | 43.43312 | 16.32486 | 3061 ft | 204 kts | 41° |
| 2026-05-04 12:49 | 43.44397 | 16.33775 | 2853 ft | 212 kts | 41° |
| 2026-05-04 12:49 | 43.45484 | 16.35046 | 2687 ft | 203 kts | 40° |
| 2026-05-04 12:49 | 43.46554 | 16.36268 | 2472 ft | 197 kts | 39° |
| 2026-05-04 12:50 | 43.47611 | 16.37441 | 2182 ft | 191 kts | 39° |
| 2026-05-04 12:50 | 43.48642 | 16.38528 | 1922 ft | 183 kts | 30° |
| 2026-05-04 12:50 | 43.49767 | 16.39097 | 1741 ft | 164 kts | 3° |
| 2026-05-04 12:50 | 43.50852 | 16.38970 | 1657 ft | 153 kts | 342° |
| 2026-05-04 12:51 | 43.51859 | 16.38560 | 1497 ft | 150 kts | 338° |
| 2026-05-04 12:51 | 43.52863 | 16.38156 | 1379 ft | 149 kts | 339° |
| 2026-05-04 12:51 | 43.53802 | 16.37634 | 1187 ft | 146 kts | 328° |
| 2026-05-04 12:51 | 43.54616 | 16.36817 | 1011 ft | 144 kts | 313° |
| 2026-05-04 12:52 | 43.55216 | 16.35758 | 827 ft | 137 kts | 294° |
| 2026-05-04 12:52 | 43.55560 | 16.34548 | 695 ft | 135 kts | 282° |
| 2026-05-04 12:52 | 43.55587 | 16.33245 | 513 ft | 137 kts | 258° |
| 2026-05-04 12:52 | 43.55173 | 16.32075 | 348 ft | 135 kts | 235° |
| 2026-05-04 12:53 | 43.54593 | 16.31060 | 116 ft | 134 kts | 233° |
| 2026-05-04 12:53 | 43.54082 | 16.30133 | 70 ft | 91 kts | 233° |
| 2026-05-04 12:53 | 43.53825 | 16.29671 | 75 ft | 44 kts | 232° |
| 2026-05-04 12:53 | 43.53738 | 16.29513 | 81 ft | 10 kts | 223° |
| 2026-05-04 12:54 | 43.53694 | 16.29532 | 66 ft | 5 kts | 109° |
| 2026-05-04 12:54 | 43.53692 | 16.29575 | 71 ft | 6 kts | 106° |
| 2026-05-04 12:54 | 43.53646 | 16.29590 | 67 ft | 9 kts | 188° |
| 2026-05-04 12:54 | 43.53603 | 16.29606 | 59 ft | 7 kts | 143° |
| 2026-05-04 12:55 | 43.53584 | 16.29648 | 65 ft | 5 kts | 86° |
| 2026-05-04 12:55 | 43.53584 | 16.29682 | 68 ft | 2 kts | 99° |
| 2026-05-04 12:55 | 43.53582 | 16.29695 | 68 ft | 1 kts | 99° |
| 2026-05-04 12:55 | 43.53582 | 16.29697 | 68 ft | 0 kts | 99° |